Heat Index [SAI AWOS/ASOS Display]_________FAA Disclaimer: "Not for use in aviation at this time______________" Untitled Document
Middletown Regional / Hook Field Airport KMWO
000
13:03
17/09/20
00
N/A
N/A
30.06
N/A
651
69(F), 21(C)
65(F), 18(C)
69 F
83%
OVC002
1/2
Fog
N/A
N/A
13:03 zulu Wind Calm, Altimeter 30.06
METAR KMWO 201303Z AUTO 00000KT 1/2SM FG OVC002 20/18 A3006 A02
METAR:
FAA Disclaimer--Advisory Use ONLY, not for flight info-- CTAF/UNICOM: 123.0 MHz, WX AWOS-3: 120.025 MHz (513-422-3505)
INFO:
Wind Direction:
Wind Speed:
Wind Gust:
Wind Variable:
Altimeter:
Dens Alt:
Elev:
Temp:
Dwpt:
Wind Chill
Rel Humidity:
Ceiling:
Visibility:
Prsnt Wea:
PCPN:
Remarks:
NOTICE--Current weather data is more than 15 minutes old. The SAI AWOS/ASOS Display is inoperative at this time.
How to read the WebPage